Time;durP1;ratioP1;P1;durP2;ratioP2;P2;SDS_P1;SDS_P2;PMS_P1;PMS_P2;Temp;Humidity;BMP_temperature;BMP_pressure;BME280_temperature;BME280_humidity;BME280_pressure;Samples;Min_cycle;Max_cycle;Signal;HPM_P1;HPM_P2
2022/06/15 00:00:07;;;;;;;2.30;1.00;;;16.90;50.00;;;;;;908337;155;27466;-72
2022/06/15 00:02:33;;;;;;;1.30;1.20;;;16.90;50.20;;;;;;901936;155;27508;-72
2022/06/15 00:05:00;;;;;;;5.17;1.10;;;16.90;50.20;;;;;;902569;155;27519;-72
2022/06/15 00:07:27;;;;;;;1.53;1.20;;;16.80;50.30;;;;;;901384;155;27464;-72
2022/06/15 00:09:53;;;;;;;1.43;1.33;;;16.80;50.70;;;;;;899927;155;27483;-72
2022/06/15 00:12:20;;;;;;;1.43;1.33;;;16.70;50.80;;;;;;900700;155;27483;-72
2022/06/15 00:14:46;;;;;;;2.53;1.57;;;16.70;50.90;;;;;;901109;155;27427;-72
2022/06/15 00:17:13;;;;;;;1.10;1.10;;;16.60;51.00;;;;;;899176;155;27376;-72
2022/06/15 00:19:39;;;;;;;1.20;1.10;;;16.60;51.20;;;;;;898457;155;27406;-74
2022/06/15 00:22:06;;;;;;;1.77;1.40;;;16.60;51.40;;;;;;898998;155;27515;-74
2022/06/15 00:24:33;;;;;;;3.27;1.50;;;16.50;51.40;;;;;;900097;155;27441;-72
2022/06/15 00:27:00;;;;;;;2.63;1.50;;;16.50;51.70;;;;;;901760;155;27470;-73
2022/06/15 00:29:26;;;;;;;1.80;1.50;;;16.50;52.00;;;;;;901229;155;27423;-73
2022/06/15 00:31:53;;;;;;;1.60;1.50;;;16.50;52.30;;;;;;899166;155;27400;-72
2022/06/15 00:34:19;;;;;;;1.43;1.33;;;16.40;52.50;;;;;;901612;155;27385;-73
2022/06/15 00:36:46;;;;;;;1.33;1.23;;;16.40;52.70;;;;;;899113;155;27466;-73
2022/06/15 00:39:13;;;;;;;1.67;1.57;;;16.40;52.80;;;;;;900781;155;28063;-71
2022/06/15 00:41:39;;;;;;;1.63;1.30;;;16.40;52.90;;;;;;899583;155;27392;-71
2022/06/15 00:44:24;;;;;;;1.43;1.37;;;16.40;53.00;;;;;;899800;155;27432;-72
2022/06/15 00:46:51;;;;;;;1.30;1.20;;;16.40;53.20;;;;;;899816;155;27423;-72
2022/06/15 00:49:29;;;;;;;4.40;1.60;;;16.30;53.00;;;;;;898171;155;27500;-72
2022/06/15 00:51:58;;;;;;;1.50;1.40;;;16.30;53.30;;;;;;922737;153;27386;-71
2022/06/15 00:54:25;;;;;;;1.43;1.33;;;16.20;53.30;;;;;;905970;156;27502;-73
2022/06/15 00:56:51;;;;;;;1.33;1.23;;;16.10;53.30;;;;;;922293;153;27397;-73
2022/06/15 00:59:24;;;;;;;3.10;1.70;;;16.10;53.40;;;;;;897595;156;27400;-72
2022/06/15 01:01:50;;;;;;;1.43;1.33;;;16.00;53.50;;;;;;922077;153;27506;-71
2022/06/15 01:04:17;;;;;;;1.83;1.23;;;16.00;53.80;;;;;;903275;156;28230;-72
2022/06/15 01:07:01;;;;;;;2.73;1.50;;;15.90;54.00;;;;;;918043;153;27410;-71
2022/06/15 01:09:28;;;;;;;1.57;1.47;;;15.90;55.00;;;;;;897500;156;27441;-73
2022/06/15 01:12:19;;;;;;;1.50;1.33;;;15.80;54.20;;;;;;896821;156;27483;-73
2022/06/15 01:15:23;;;;;;;1.63;1.50;;;15.80;54.60;;;;;;896520;156;27754;-72
2022/06/15 01:17:55;;;;;;;1.60;1.50;;;15.80;54.60;;;;;;897722;157;27416;-74
2022/06/15 01:20:22;;;;;;;1.50;1.40;;;15.80;54.50;;;;;;895897;157;27424;-76
2022/06/15 01:23:11;;;;;;;1.37;1.27;;;15.80;55.00;;;;;;897191;158;28452;-74
2022/06/15 01:25:51;;;;;;;1.33;1.33;;;15.70;55.20;;;;;;894822;157;27430;-72
2022/06/15 01:28:42;;;;;;;1.50;1.40;;;15.70;55.20;;;;;;896202;157;27415;-72
2022/06/15 01:31:08;;;;;;;2.00;1.53;;;15.70;55.30;;;;;;919022;153;27280;-72
2022/06/15 01:33:50;;;;;;;1.93;1.67;;;15.70;55.40;;;;;;901752;156;27418;-75
2022/06/15 01:36:19;;;;;;;3.37;1.73;;;15.70;55.50;;;;;;920144;153;27475;-72
2022/06/15 01:39:07;;;;;;;4.10;1.47;;;15.70;55.80;;;;;;892154;159;27510;-72
2022/06/15 01:41:34;;;;;;;2.83;1.33;;;15.70;56.00;;;;;;897431;156;27475;-73
2022/06/15 01:44:08;;;;;;;1.77;1.60;;;15.70;56.00;;;;;;919306;153;27395;-73
2022/06/15 01:46:33;;;;;;;1.50;1.40;;;15.70;56.30;;;;;;920703;153;27924;-74
2022/06/15 01:48:59;;;;;;;1.33;1.23;;;15.70;56.30;;;;;;906208;156;27418;-73
2022/06/15 01:51:28;;;;;;;1.77;1.30;;;15.60;56.50;;;;;;924125;152;27755;-74
2022/06/15 01:53:55;;;;;;;1.83;1.73;;;15.60;56.60;;;;;;922567;152;27278;-73
2022/06/15 01:56:24;;;;;;;2.17;1.40;;;15.60;56.50;;;;;;932134;149;27352;-72
2022/06/15 01:58:57;;;;;;;1.40;1.30;;;15.60;56.60;;;;;;938839;150;27422;-75
2022/06/15 02:01:42;;;;;;;3.13;1.50;;;15.60;56.60;;;;;;936783;150;27402;-74
2022/06/15 02:04:14;;;;;;;1.40;1.37;;;15.60;56.70;;;;;;935108;151;27334;-74
2022/06/15 02:06:40;;;;;;;2.40;1.20;;;15.50;56.50;;;;;;936157;151;27335;-73
2022/06/15 02:09:10;;;;;;;1.60;1.50;;;15.50;56.80;;;;;;937058;151;27361;-73
2022/06/15 02:11:39;;;;;;;1.80;1.70;;;15.40;56.90;;;;;;937183;151;27375;-74
2022/06/15 02:14:17;;;;;;;1.97;1.87;;;15.40;57.10;;;;;;934148;151;27390;-72
2022/06/15 02:16:46;;;;;;;1.50;1.40;;;15.30;57.20;;;;;;936854;151;27296;-72
2022/06/15 02:19:13;;;;;;;1.40;1.30;;;15.30;57.20;;;;;;939053;151;27412;-73
2022/06/15 02:21:40;;;;;;;2.67;1.57;;;15.20;57.30;;;;;;939023;151;27449;-73
2022/06/15 02:24:06;;;;;;;2.27;1.30;;;15.20;57.40;;;;;;937656;151;27417;-73
2022/06/15 02:26:33;;;;;;;1.60;1.50;;;15.20;57.60;;;;;;939418;151;27382;-73
2022/06/15 02:29:05;;;;;;;1.40;1.30;;;15.10;57.60;;;;;;935456;151;27328;-74
2022/06/15 02:31:31;;;;;;;1.40;1.30;;;15.10;57.80;;;;;;934057;151;27381;-73
2022/06/15 02:33:59;;;;;;;1.63;1.53;;;15.00;57.80;;;;;;935203;151;27460;-72
2022/06/15 02:36:25;;;;;;;1.70;1.60;;;15.00;58.00;;;;;;934057;151;27402;-73
2022/06/15 02:38:51;;;;;;;2.67;1.77;;;14.90;58.00;;;;;;934176;150;27344;-74
2022/06/15 02:41:19;;;;;;;1.33;1.33;;;14.90;58.10;;;;;;935064;148;27305;-74
2022/06/15 02:43:44;;;;;;;1.60;1.50;;;14.80;58.30;;;;;;938579;151;27500;-73
2022/06/15 02:46:11;;;;;;;1.77;1.67;;;14.80;58.30;;;;;;934564;151;28346;-74
2022/06/15 02:48:38;;;;;;;1.60;1.50;;;14.80;58.40;;;;;;932834;151;27816;-73
2022/06/15 02:51:04;;;;;;;1.50;1.40;;;14.70;58.40;;;;;;933521;151;27434;-73
2022/06/15 02:53:31;;;;;;;2.20;1.60;;;14.70;58.60;;;;;;932535;151;27293;-73
2022/06/15 02:55:57;;;;;;;2.07;1.43;;;14.60;58.60;;;;;;932926;151;27410;-75
2022/06/15 02:58:29;;;;;;;2.07;1.50;;;14.60;58.60;;;;;;933384;151;27414;-72
2022/06/15 03:00:56;;;;;;;1.63;1.53;;;14.50;58.70;;;;;;932733;151;27373;-73
2022/06/15 03:03:23;;;;;;;2.03;1.80;;;14.50;58.70;;;;;;931324;151;27366;-73
2022/06/15 03:05:49;;;;;;;2.13;1.80;;;14.40;59.00;;;;;;936827;151;27430;-74
2022/06/15 03:08:16;;;;;;;2.23;1.60;;;14.40;59.00;;;;;;938832;151;27500;-71
2022/06/15 03:10:42;;;;;;;2.67;1.60;;;14.40;59.20;;;;;;936054;151;27424;-72
2022/06/15 03:13:09;;;;;;;2.10;2.00;;;14.30;59.30;;;;;;934182;151;27345;-73
2022/06/15 03:15:36;;;;;;;2.10;1.70;;;14.30;59.40;;;;;;900274;155;27407;-72
2022/06/15 03:18:02;;;;;;;2.00;1.63;;;14.30;59.60;;;;;;908253;155;27449;-74
2022/06/15 03:20:29;;;;;;;1.63;1.53;;;14.30;59.70;;;;;;922065;153;28533;-73
2022/06/15 03:22:55;;;;;;;1.80;1.70;;;14.30;59.80;;;;;;899781;155;27428;-72
2022/06/15 03:25:22;;;;;;;1.37;1.37;;;14.30;60.00;;;;;;905094;155;27474;-72
2022/06/15 03:27:49;;;;;;;3.67;2.37;;;14.20;60.00;;;;;;913245;154;27448;-71
2022/06/15 03:30:15;;;;;;;1.57;1.47;;;14.20;60.10;;;;;;912913;154;27421;-72
2022/06/15 03:32:42;;;;;;;1.60;1.30;;;14.20;60.20;;;;;;914348;154;27394;-74
2022/06/15 03:35:08;;;;;;;1.70;1.53;;;14.20;60.30;;;;;;914780;154;27406;-74
2022/06/15 03:37:35;;;;;;;2.20;1.57;;;14.30;60.40;;;;;;911578;154;27375;-74
2022/06/15 03:40:01;;;;;;;1.77;1.67;;;14.20;60.50;;;;;;911835;154;27332;-72
2022/06/15 03:42:28;;;;;;;2.10;1.90;;;14.20;60.70;;;;;;911501;153;27374;-72
2022/06/15 03:44:55;;;;;;;2.03;1.50;;;14.30;61.00;;;;;;916350;154;27331;-73
2022/06/15 03:47:21;;;;;;;2.00;1.80;;;14.30;61.00;;;;;;912605;152;27449;-72
2022/06/15 03:49:48;;;;;;;1.70;1.60;;;14.30;61.10;;;;;;913609;154;27403;-72
2022/06/15 03:52:17;;;;;;;2.33;1.60;;;14.30;61.20;;;;;;911109;154;27496;-72
2022/06/15 03:54:44;;;;;;;2.00;1.63;;;14.30;61.20;;;;;;914917;154;27394;-73
2022/06/15 03:57:10;;;;;;;1.77;1.40;;;14.30;61.30;;;;;;912413;154;27386;-74
2022/06/15 03:59:37;;;;;;;2.27;1.57;;;14.30;61.40;;;;;;914383;154;27399;-72
2022/06/15 04:02:03;;;;;;;1.97;1.77;;;14.30;61.40;;;;;;910918;154;27473;-73
2022/06/15 04:04:30;;;;;;;2.10;1.30;;;14.40;61.60;;;;;;913329;154;27365;-73
2022/06/15 04:06:57;;;;;;;2.03;1.50;;;14.40;61.70;;;;;;915397;154;27411;-72
2022/06/15 04:09:23;;;;;;;1.97;1.77;;;14.40;61.80;;;;;;914793;154;27792;-73
2022/06/15 04:11:58;;;;;;;1.93;1.83;;;14.50;62.00;;;;;;908608;154;27976;-72
2022/06/15 04:14:30;;;;;;;2.17;1.40;;;14.50;62.10;;;;;;913966;154;27350;-72
2022/06/15 04:16:57;;;;;;;1.87;1.50;;;14.60;62.20;;;;;;911716;154;27420;-71
2022/06/15 04:19:24;;;;;;;1.67;1.57;;;14.70;62.30;;;;;;912729;153;27480;-73
2022/06/15 04:21:50;;;;;;;2.47;1.70;;;14.70;62.60;;;;;;913178;154;27858;-72
2022/06/15 04:24:17;;;;;;;2.60;1.67;;;14.90;62.60;;;;;;911573;154;27373;-72
2022/06/15 04:26:43;;;;;;;1.63;1.53;;;14.90;62.70;;;;;;915572;154;27388;-71
2022/06/15 04:29:10;;;;;;;1.60;1.50;;;15.10;62.70;;;;;;916203;152;27430;-72
2022/06/15 04:31:38;;;;;;;2.60;1.70;;;15.10;62.60;;;;;;914305;154;27456;-72
2022/06/15 04:34:03;;;;;;;1.40;1.30;;;15.30;62.60;;;;;;913508;152;27541;-72
2022/06/15 04:36:30;;;;;;;2.30;2.10;;;15.40;62.60;;;;;;913743;154;27390;-71
2022/06/15 04:38:56;;;;;;;2.07;1.93;;;15.60;62.60;;;;;;912921;154;27377;-73
2022/06/15 04:41:23;;;;;;;1.90;1.70;;;15.70;62.50;;;;;;915034;154;27378;-73
2022/06/15 04:43:49;;;;;;;2.73;1.60;;;15.90;62.60;;;;;;913367;154;27482;-73
2022/06/15 04:46:16;;;;;;;3.17;1.87;;;16.10;62.10;;;;;;914697;154;27382;-73
2022/06/15 04:48:43;;;;;;;2.07;1.73;;;16.30;62.40;;;;;;910536;154;27487;-72
2022/06/15 04:51:09;;;;;;;1.60;1.50;;;16.50;61.70;;;;;;912885;154;27412;-72
2022/06/15 04:53:36;;;;;;;1.67;1.50;;;16.70;61.80;;;;;;912611;154;27429;-73
2022/06/15 04:56:02;;;;;;;2.27;1.37;;;17.10;62.50;;;;;;916783;154;27487;-73
2022/06/15 04:58:29;;;;;;;1.72;1.40;;;17.50;63.20;;;;;;913907;151;27523;-75
2022/06/15 05:00:56;;;;;;;1.82;1.40;;;18.10;64.00;;;;;;908365;154;27412;-72
2022/06/15 05:03:22;;;;;;;1.57;1.45;;;18.90;64.10;;;;;;910319;154;27477;-73
2022/06/15 05:05:49;;;;;;;1.42;1.22;;;19.70;63.50;;;;;;911079;155;27366;-73
2022/06/15 05:08:15;;;;;;;1.12;1.12;;;20.50;62.40;;;;;;911975;155;27469;-74
2022/06/15 05:10:42;;;;;;;1.72;1.40;;;21.40;61.10;;;;;;913029;155;27453;-75
2022/06/15 05:13:08;;;;;;;1.30;1.20;;;22.30;59.80;;;;;;913917;154;27440;-73
2022/06/15 05:15:35;;;;;;;1.15;1.00;;;23.10;58.50;;;;;;912974;155;27418;-73
2022/06/15 05:18:02;;;;;;;1.82;1.27;;;23.90;57.20;;;;;;911938;151;27480;-73
2022/06/15 05:20:28;;;;;;;1.12;1.12;;;24.60;55.90;;;;;;909823;154;27396;-73
2022/06/15 05:22:55;;;;;;;1.77;1.22;;;25.20;54.50;;;;;;912888;155;27504;-73
2022/06/15 05:25:21;;;;;;;1.07;1.07;;;25.70;53.50;;;;;;914562;154;27554;-76
2022/06/15 05:27:49;;;;;;;1.37;1.27;;;26.20;52.50;;;;;;910223;151;27961;-72
2022/06/15 05:30:15;;;;;;;2.47;0.98;;;26.80;51.90;;;;;;914125;155;27336;-74
2022/06/15 05:32:41;;;;;;;1.10;1.00;;;27.20;51.40;;;;;;913465;155;27382;-73
2022/06/15 05:35:08;;;;;;;1.50;1.05;;;27.80;51.10;;;;;;914383;155;27317;-72
2022/06/15 05:37:35;;;;;;;1.32;1.07;;;28.40;50.40;;;;;;912459;154;27478;-76
2022/06/15 05:40:01;;;;;;;1.42;1.32;;;29.00;49.70;;;;;;909290;151;27429;-74
2022/06/15 05:42:28;;;;;;;3.45;1.22;;;29.60;48.90;;;;;;910322;154;27363;-73
2022/06/15 05:44:55;;;;;;;1.52;1.42;;;30.30;48.00;;;;;;915098;155;27397;-73
2022/06/15 05:47:21;;;;;;;1.10;1.02;;;30.90;47.00;;;;;;913452;154;27361;-76
2022/06/15 05:49:47;;;;;;;2.85;1.27;;;31.50;46.10;;;;;;913057;154;27396;-74
2022/06/15 05:52:14;;;;;;;2.17;1.02;;;32.10;45.50;;;;;;910565;151;27425;-73
2022/06/15 05:54:40;;;;;;;1.35;1.20;;;32.50;44.60;;;;;;914434;155;28376;-74
2022/06/15 05:57:15;;;;;;;1.25;1.25;;;33.10;44.10;;;;;;909478;154;27438;-74
2022/06/15 05:59:39;;;;;;;1.72;1.10;;;33.60;43.20;;;;;;911521;153;27377;-74
2022/06/15 06:02:06;;;;;;;1.42;1.32;;;34.10;42.40;;;;;;916692;154;27392;-76
2022/06/15 06:04:32;;;;;;;3.45;1.25;;;34.60;41.70;;;;;;913744;154;27400;-73
2022/06/15 06:06:59;;;;;;;1.45;1.35;;;35.00;41.00;;;;;;914721;154;27417;-73
2022/06/15 06:09:27;;;;;;;1.55;1.30;;;35.50;40.50;;;;;;915404;154;27497;-73
2022/06/15 06:11:52;;;;;;;2.00;1.50;;;35.90;39.70;;;;;;914137;152;27406;-76
2022/06/15 06:14:19;;;;;;;1.62;1.20;;;36.20;39.10;;;;;;911899;154;27427;-75
2022/06/15 06:16:45;;;;;;;3.87;1.30;;;36.60;38.60;;;;;;916371;154;26363;-77
2022/06/15 06:19:12;;;;;;;1.85;1.57;;;37.00;38.10;;;;;;915416;154;26883;-75
2022/06/15 06:21:39;;;;;;;1.80;1.22;;;37.40;37.60;;;;;;914153;154;26286;-75
2022/06/15 06:24:06;;;;;;;1.77;1.60;;;37.80;37.10;;;;;;914403;154;26287;-74
2022/06/15 06:26:33;;;;;;;1.30;1.20;;;38.30;36.00;;;;;;915233;154;26289;-75
2022/06/15 06:28:59;;;;;;;1.62;1.27;;;38.60;36.00;;;;;;910798;154;26285;-75
2022/06/15 06:31:26;;;;;;;1.10;1.00;;;39.10;35.40;;;;;;916373;154;26335;-77
2022/06/15 06:33:53;;;;;;;1.17;0.88;;;39.50;34.70;;;;;;910911;154;26344;-75
2022/06/15 06:36:29;;;;;;;1.37;1.15;;;40.00;34.30;;;;;;915022;154;26327;-75
2022/06/15 06:38:54;;;;;;;1.80;1.32;;;40.40;33.70;;;;;;912487;154;26305;-76
2022/06/15 06:41:21;;;;;;;1.27;1.17;;;40.80;33.10;;;;;;915681;154;26223;-76
2022/06/15 06:43:48;;;;;;;2.50;1.30;;;41.20;31.90;;;;;;915350;154;26343;-77
2022/06/15 06:46:14;;;;;;;1.50;1.10;;;41.30;31.50;;;;;;910785;154;26321;-75
2022/06/15 06:48:41;;;;;;;1.65;1.20;;;41.60;31.30;;;;;;914772;154;26418;-74
2022/06/15 06:51:07;;;;;;;1.07;1.07;;;41.70;30.80;;;;;;914103;154;26277;-75
2022/06/15 06:53:35;;;;;;;1.42;1.07;;;42.00;30.60;;;;;;911643;154;26297;-75
2022/06/15 06:56:01;;;;;;;1.45;1.30;;;42.30;30.40;;;;;;913207;154;26314;-76
2022/06/15 06:58:27;;;;;;;2.30;1.42;;;42.60;30.10;;;;;;914080;154;26387;-78
2022/06/15 07:00:54;;;;;;;1.77;1.12;;;43.00;29.90;;;;;;912551;154;26401;-76
2022/06/15 07:03:20;;;;;;;2.92;1.17;;;43.30;29.50;;;;;;915163;154;26751;-77
2022/06/15 07:05:47;;;;;;;5.90;1.47;;;43.60;29.20;;;;;;913282;154;27048;-75
2022/06/15 07:08:14;;;;;;;2.75;1.12;;;44.00;29.30;;;;;;912210;155;26328;-76
2022/06/15 07:10:40;;;;;;;1.95;1.10;;;44.30;28.30;;;;;;912272;154;26251;-77
2022/06/15 07:13:07;;;;;;;2.42;1.30;;;44.60;28.10;;;;;;912641;154;26377;-75
2022/06/15 07:15:33;;;;;;;2.27;1.10;;;44.90;27.70;;;;;;911751;155;26238;-75
2022/06/15 07:18:00;;;;;;;1.37;1.10;;;45.10;27.60;;;;;;912180;155;26304;-78
2022/06/15 07:20:26;;;;;;;1.72;1.05;;;45.40;27.30;;;;;;912631;151;26199;-75
2022/06/15 07:22:54;;;;;;;1.15;1.05;;;45.70;27.10;;;;;;912763;151;26258;-78
2022/06/15 07:25:20;;;;;;;1.37;1.20;;;45.90;26.70;;;;;;914271;154;26390;-76
2022/06/15 07:27:46;;;;;;;0.90;0.80;;;46.20;26.40;;;;;;912109;155;26294;-75
2022/06/15 07:30:13;;;;;;;2.12;1.32;;;46.40;26.30;;;;;;915941;155;26229;-75
2022/06/15 07:32:40;;;;;;;3.92;1.40;;;46.60;26.00;;;;;;912214;155;26290;-77
2022/06/15 07:35:06;;;;;;;3.27;1.22;;;46.70;25.60;;;;;;911564;151;26285;-75
2022/06/15 07:37:33;;;;;;;1.30;1.20;;;46.90;25.50;;;;;;911841;154;26321;-76
2022/06/15 07:40:00;;;;;;;3.15;1.40;;;47.00;25.30;;;;;;913302;154;26308;-79
2022/06/15 07:42:26;;;;;;;2.37;1.15;;;47.20;25.20;;;;;;915300;155;26329;-73
2022/06/15 07:44:53;;;;;;;4.87;1.40;;;47.30;25.10;;;;;;910226;154;27080;-74
2022/06/15 07:50:04;;;;;;;2.00;0.90;;;47.50;24.50;;;;;;913750;155;26383;-73
2022/06/15 07:52:31;;;;;;;1.55;1.22;;;47.40;24.40;;;;;;913893;154;26304;-75
2022/06/15 07:54:58;;;;;;;4.80;2.33;;;47.50;24.20;;;;;;910978;154;26390;-76
2022/06/15 07:57:24;;;;;;;1.82;1.20;;;47.40;23.90;;;;;;913211;154;26408;-75
2022/06/15 07:59:51;;;;;;;1.77;1.20;;;47.30;24.00;;;;;;915771;154;28371;-74
2022/06/15 08:02:17;;;;;;;1.40;1.05;;;47.20;23.80;;;;;;912223;154;26407;-74
2022/06/15 08:04:44;;;;;;;1.40;0.90;;;47.20;23.80;;;;;;911485;155;26215;-73
2022/06/15 08:07:10;;;;;;;2.05;1.05;;;47.10;23.70;;;;;;909736;154;26358;-76
2022/06/15 08:09:37;;;;;;;3.33;1.52;;;47.00;23.70;;;;;;912006;153;26377;-73
2022/06/15 08:12:14;;;;;;;1.25;1.15;;;47.00;23.70;;;;;;913628;154;26376;-73
2022/06/15 08:14:39;;;;;;;2.47;1.15;;;47.10;23.70;;;;;;914251;155;26342;-74
2022/06/15 08:17:06;;;;;;;1.22;1.00;;;47.20;23.70;;;;;;912930;154;26275;-73
2022/06/15 08:19:35;;;;;;;1.27;1.00;;;47.30;23.60;;;;;;913737;151;26286;-77
2022/06/15 08:22:02;;;;;;;2.27;1.00;;;47.40;23.50;;;;;;914517;155;26320;-74
2022/06/15 08:24:28;;;;;;;1.25;0.90;;;47.50;23.30;;;;;;912336;154;26274;-74
2022/06/15 08:26:55;;;;;;;1.92;1.20;;;47.60;23.10;;;;;;910912;151;26234;-73
2022/06/15 08:29:22;;;;;;;1.55;1.05;;;47.70;23.00;;;;;;917706;154;26290;-74
2022/06/15 08:31:48;;;;;;;2.30;1.17;;;47.70;23.10;;;;;;912575;154;26339;-74
2022/06/15 08:34:15;;;;;;;2.52;1.35;;;47.80;23.20;;;;;;914828;154;26418;-76
2022/06/15 08:36:42;;;;;;;1.60;1.00;;;47.90;23.10;;;;;;916179;154;26313;-73
2022/06/15 08:39:08;;;;;;;2.15;1.10;;;48.00;22.90;;;;;;915148;155;26272;-73
2022/06/15 08:41:56;;;;;;;2.45;1.35;;;48.10;22.80;;;;;;915113;155;26717;-73
2022/06/15 08:44:37;;;;;;;2.75;1.40;;;48.20;22.60;;;;;;914211;151;26353;-75
2022/06/15 08:47:07;;;;;;;1.27;1.12;;;48.40;22.60;;;;;;912093;154;26400;-74
2022/06/15 08:49:43;;;;;;;1.45;1.15;;;48.40;22.50;;;;;;913886;154;26434;-75
2022/06/15 08:52:13;;;;;;;1.67;1.30;;;48.70;22.50;;;;;;917644;154;26745;-74
2022/06/15 08:54:47;;;;;;;1.57;1.40;;;48.90;22.50;;;;;;913968;154;26274;-74
2022/06/15 08:57:20;;;;;;;1.85;1.40;;;49.20;22.20;;;;;;914048;154;26503;-75
2022/06/15 08:59:55;;;;;;;2.35;1.20;;;49.50;22.10;;;;;;918136;155;26763;-74
2022/06/15 09:02:24;;;;;;;1.52;1.10;;;49.60;21.90;;;;;;916211;152;26366;-74
2022/06/15 09:04:54;;;;;;;1.57;1.15;;;49.60;21.60;;;;;;915074;154;26299;-74
2022/06/15 09:07:26;;;;;;;2.30;1.10;;;49.70;21.70;;;;;;918164;154;26260;-74
2022/06/15 09:10:10;;;;;;;1.60;1.00;;;49.70;21.60;;;;;;919627;154;26284;-73
2022/06/15 09:15:31;;;;;;;1.67;1.27;;;49.70;21.30;;;;;;916386;154;26313;-75
2022/06/15 09:17:58;;;;;;;2.87;1.45;;;49.60;21.30;;;;;;913669;154;26307;-75
2022/06/15 09:20:30;;;;;;;1.37;1.27;;;49.60;21.30;;;;;;921438;154;26350;-75
2022/06/15 09:22:57;;;;;;;1.75;1.15;;;49.40;20.90;;;;;;919541;154;26312;-74
2022/06/15 09:25:29;;;;;;;1.95;1.30;;;49.10;20.80;;;;;;916215;152;26333;-73
2022/06/15 09:27:56;;;;;;;2.20;1.12;;;48.90;21.00;;;;;;917635;154;26234;-75
2022/06/15 09:30:22;;;;;;;1.12;1.02;;;48.50;21.30;;;;;;888346;154;27874;-74
2022/06/15 09:32:52;;;;;;;1.25;1.17;;;48.20;21.20;;;;;;918671;154;26258;-75
2022/06/15 09:35:43;;;;;;;2.55;1.27;;;48.10;21.30;;;;;;914635;154;26362;-77
2022/06/15 09:38:10;;;;;;;1.50;1.40;;;47.80;21.40;;;;;;913775;153;26839;-77
2022/06/15 09:40:42;;;;;;;1.32;1.22;;;47.80;21.30;;;;;;915078;152;26313;-74
2022/06/15 09:43:11;;;;;;;1.40;1.30;;;47.50;21.30;;;;;;912420;154;26397;-77
2022/06/15 09:45:47;;;;;;;1.47;1.25;;;47.30;21.40;;;;;;911498;154;26418;-77
2022/06/15 09:48:19;;;;;;;2.50;1.40;;;47.10;21.30;;;;;;916507;152;26430;-77
2022/06/15 09:50:49;;;;;;;3.55;1.57;;;47.00;21.40;;;;;;910016;154;26417;-75
2022/06/15 09:53:27;;;;;;;1.37;1.27;;;46.70;21.20;;;;;;912432;154;26435;-76
2022/06/15 09:55:56;;;;;;;2.95;1.37;;;46.50;21.30;;;;;;912920;154;26297;-75
2022/06/15 09:58:23;;;;;;;3.30;1.40;;;46.20;21.60;;;;;;916485;154;26301;-77
2022/06/15 10:00:50;;;;;;;1.57;1.35;;;45.90;21.70;;;;;;911166;154;26301;-74
2022/06/15 10:03:22;;;;;;;1.50;1.40;;;45.70;21.70;;;;;;913951;154;26277;-74
2022/06/15 10:05:49;;;;;;;1.40;1.30;;;45.40;21.80;;;;;;915511;155;26432;-74
2022/06/15 10:08:15;;;;;;;3.05;1.82;;;45.10;21.70;;;;;;914743;151;26407;-75
2022/06/15 10:10:54;;;;;;;1.60;1.50;;;44.80;21.70;;;;;;914029;152;26316;-77
2022/06/15 10:13:20;;;;;;;3.42;1.60;;;44.60;21.70;;;;;;906410;154;26350;-74
2022/06/15 10:15:56;;;;;;;1.52;1.42;;;44.30;21.80;;;;;;913444;155;26272;-74
2022/06/15 10:18:31;;;;;;;3.02;1.40;;;43.90;21.90;;;;;;910336;154;26277;-74
2022/06/15 10:21:07;;;;;;;2.33;1.55;;;43.40;22.00;;;;;;915197;154;27348;-74
2022/06/15 10:23:52;;;;;;;2.83;1.47;;;43.00;22.20;;;;;;913078;155;26398;-77
2022/06/15 10:26:33;;;;;;;3.83;1.60;;;42.40;22.40;;;;;;914173;154;27393;-77
2022/06/15 10:29:00;;;;;;;1.75;1.60;;;41.90;22.40;;;;;;910002;154;26373;-74
2022/06/15 10:31:26;;;;;;;2.70;1.50;;;41.40;22.60;;;;;;896972;154;26401;-76
2022/06/15 10:33:54;;;;;;;2.87;1.55;;;40.80;22.60;;;;;;911201;154;26230;-75
2022/06/15 10:36:31;;;;;;;2.17;1.52;;;40.30;22.60;;;;;;911934;154;26312;-77
2022/06/15 10:39:04;;;;;;;2.45;1.50;;;39.90;23.00;;;;;;908007;151;26393;-74
2022/06/15 10:41:45;;;;;;;3.20;1.87;;;39.50;23.30;;;;;;904323;155;27330;-73
2022/06/15 10:44:30;;;;;;;3.55;1.60;;;39.10;23.40;;;;;;911258;155;27442;-74
2022/06/15 10:46:59;;;;;;;2.30;1.70;;;38.80;23.70;;;;;;911013;154;27504;-75
2022/06/15 10:49:26;;;;;;;2.00;1.80;;;38.60;23.90;;;;;;910860;155;27429;-74
2022/06/15 10:51:52;;;;;;;1.85;1.75;;;38.40;23.90;;;;;;912645;155;27484;-74
2022/06/15 10:54:22;;;;;;;2.15;1.57;;;38.00;24.00;;;;;;911765;154;27453;-73
2022/06/15 11:02:33;;;;;;;1.75;1.60;;;37.10;24.40;;;;;;910859;154;27497;-77
2022/06/15 11:05:06;;;;;;;2.67;1.80;;;36.70;24.60;;;;;;914780;153;27425;-74
2022/06/15 11:07:41;;;;;;;2.22;1.70;;;36.40;24.80;;;;;;913262;152;27403;-73
2022/06/15 11:10:13;;;;;;;3.47;1.70;;;36.20;25.20;;;;;;912687;154;27484;-77
2022/06/15 11:12:42;;;;;;;1.50;1.40;;;36.00;25.30;;;;;;912201;154;27343;-77
2022/06/15 11:15:15;;;;;;;2.33;1.70;;;35.80;25.40;;;;;;912326;154;27460;-77
2022/06/15 11:18:06;;;;;;;1.92;1.70;;;35.70;25.60;;;;;;914239;154;27427;-74
2022/06/15 11:20:37;;;;;;;1.72;1.60;;;35.50;25.70;;;;;;913994;154;27551;-75
2022/06/15 11:23:13;;;;;;;2.62;1.95;;;35.30;25.80;;;;;;914658;154;27412;-73
2022/06/15 11:25:39;;;;;;;2.33;1.90;;;35.20;26.00;;;;;;914301;154;27402;-74
2022/06/15 11:28:06;;;;;;;2.92;1.77;;;35.10;26.30;;;;;;912961;154;27421;-74
2022/06/15 11:30:33;;;;;;;2.92;1.75;;;35.00;26.30;;;;;;914923;154;27407;-75
2022/06/15 11:33:14;;;;;;;1.70;1.60;;;35.00;26.60;;;;;;914452;154;27389;-75
2022/06/15 11:35:43;;;;;;;1.60;1.50;;;34.90;26.70;;;;;;912413;152;27970;-74
2022/06/15 11:38:37;;;;;;;2.05;1.90;;;34.90;26.60;;;;;;911795;154;27798;-74
2022/06/15 11:41:07;;;;;;;2.58;1.98;;;34.90;26.80;;;;;;902215;155;27405;-74
2022/06/15 11:43:36;;;;;;;1.72;1.62;;;34.80;26.90;;;;;;897737;152;27424;-74
2022/06/15 11:46:05;;;;;;;1.80;1.60;;;34.70;26.80;;;;;;901692;155;27396;-76
2022/06/15 11:48:53;;;;;;;3.00;1.67;;;34.60;26.80;;;;;;901777;155;27925;-77
2022/06/15 11:51:35;;;;;;;2.15;1.55;;;34.50;27.00;;;;;;900725;155;28149;-74
2022/06/15 11:54:26;;;;;;;2.02;1.65;;;34.40;27.20;;;;;;907219;155;27422;-73
2022/06/15 11:56:55;;;;;;;1.60;1.50;;;34.20;27.40;;;;;;919401;153;27257;-74
2022/06/15 11:59:24;;;;;;;1.75;1.65;;;34.10;27.30;;;;;;918411;153;27266;-74
2022/06/15 12:02:03;;;;;;;1.92;1.72;;;34.10;27.40;;;;;;880163;153;27392;-74
2022/06/15 12:04:51;;;;;;;3.75;1.67;;;34.10;27.50;;;;;;891353;153;27399;-74
2022/06/15 12:07:23;;;;;;;1.45;1.35;;;34.10;27.10;;;;;;894987;156;27416;-74
2022/06/15 12:10:04;;;;;;;1.77;1.62;;;34.10;26.80;;;;;;916339;154;27478;-74
2022/06/15 12:12:52;;;;;;;2.05;1.45;;;34.10;26.90;;;;;;913873;153;27448;-75
2022/06/15 12:15:45;;;;;;;1.67;1.52;;;34.00;26.90;;;;;;909006;155;27425;-75
2022/06/15 12:18:28;;;;;;;2.60;1.72;;;34.00;26.80;;;;;;913071;154;27519;-74
2022/06/15 12:21:06;;;;;;;1.67;1.37;;;34.00;26.80;;;;;;912162;155;27445;-74
2022/06/15 12:23:59;;;;;;;2.27;1.45;;;34.00;26.90;;;;;;911188;155;27782;-74
2022/06/15 12:26:36;;;;;;;1.40;1.30;;;34.00;26.90;;;;;;912068;154;27475;-74
2022/06/15 12:29:27;;;;;;;1.72;1.55;;;34.10;27.00;;;;;;896136;156;27436;-76
2022/06/15 12:32:38;;;;;;;2.52;1.50;;;34.10;26.80;;;;;;896460;156;27635;-75
2022/06/15 12:35:12;;;;;;;3.20;1.42;;;34.10;26.90;;;;;;896334;156;27331;-74
2022/06/15 12:37:42;;;;;;;1.77;1.60;;;34.10;26.80;;;;;;901838;156;27519;-77
2022/06/15 12:40:30;;;;;;;1.77;1.67;;;34.00;26.70;;;;;;914850;154;27430;-74
2022/06/15 12:42:56;;;;;;;3.17;1.57;;;34.00;26.90;;;;;;912518;155;27453;-75
2022/06/15 12:45:22;;;;;;;1.70;1.50;;;34.00;27.00;;;;;;895091;156;27354;-73
2022/06/15 12:47:49;;;;;;;2.33;1.60;;;33.90;27.00;;;;;;903186;156;27438;-74
2022/06/15 12:50:21;;;;;;;1.95;1.50;;;33.80;27.00;;;;;;893736;156;27495;-77
2022/06/15 12:52:48;;;;;;;3.90;1.50;;;33.80;27.10;;;;;;900266;156;27426;-74
2022/06/15 12:55:33;;;;;;;1.57;1.47;;;33.80;27.20;;;;;;915086;154;27397;-74
2022/06/15 12:58:17;;;;;;;3.00;1.42;;;33.70;27.20;;;;;;931960;148;27333;-74
2022/06/15 13:00:53;;;;;;;2.58;1.70;;;33.70;27.30;;;;;;936237;150;27723;-74
2022/06/15 13:03:22;;;;;;;1.62;1.52;;;33.70;27.30;;;;;;924841;151;27492;-76
2022/06/15 13:05:49;;;;;;;2.58;1.55;;;33.70;27.50;;;;;;911188;155;27516;-73
2022/06/15 13:08:19;;;;;;;1.82;1.70;;;33.60;27.30;;;;;;900678;155;27519;-74
2022/06/15 13:10:54;;;;;;;2.05;1.60;;;33.60;27.20;;;;;;914048;155;27353;-74
2022/06/15 13:13:30;;;;;;;1.85;1.57;;;33.60;27.20;;;;;;909912;155;27830;-74